sensor_id;sensor_type;location;lat;lon;timestamp;pressure;altitude;pressure_sealevel;temperature;humidity
16821;BME280;8527;49.740;6.604;2023-01-27T00:01:25;100198.34;;;0.84;100.00
16821;BME280;8527;49.740;6.604;2023-01-27T00:06:23;100195.81;;;0.83;100.00
16821;BME280;8527;49.740;6.604;2023-01-27T00:11:24;100204.38;;;0.85;100.00
16821;BME280;8527;49.740;6.604;2023-01-27T00:16:35;100199.16;;;0.85;100.00
16821;BME280;8527;49.740;6.604;2023-01-27T00:21:33;100205.22;;;0.86;100.00
16821;BME280;8527;49.740;6.604;2023-01-27T00:26:46;100194.22;;;0.80;100.00
16821;BME280;8527;49.740;6.604;2023-01-27T00:31:45;100193.00;;;0.86;100.00
16821;BME280;8527;49.740;6.604;2023-01-27T00:36:58;100187.88;;;0.84;100.00
16821;BME280;8527;49.740;6.604;2023-01-27T00:41:59;100181.81;;;0.84;100.00
16821;BME280;8527;49.740;6.604;2023-01-27T00:46:57;100186.66;;;0.90;100.00
16821;BME280;8527;49.740;6.604;2023-01-27T00:51:56;100186.00;;;0.87;100.00
16821;BME280;8527;49.740;6.604;2023-01-27T00:56:55;100176.22;;;0.90;100.00
16821;BME280;8527;49.740;6.604;2023-01-27T01:01:55;100178.72;;;0.92;100.00
16821;BME280;8527;49.740;6.604;2023-01-27T01:06:54;100185.72;;;0.91;100.00
16821;BME280;8527;49.740;6.604;2023-01-27T01:11:53;100182.84;;;0.96;100.00
16821;BME280;8527;49.740;6.604;2023-01-27T01:16:51;100182.19;;;0.92;100.00
16821;BME280;8527;49.740;6.604;2023-01-27T01:21:53;100192.22;;;0.98;100.00
16821;BME280;8527;49.740;6.604;2023-01-27T01:26:57;100194.47;;;1.05;100.00
16821;BME280;8527;49.740;6.604;2023-01-27T01:31:56;100195.41;;;1.04;100.00
16821;BME280;8527;49.740;6.604;2023-01-27T01:36:57;100189.81;;;0.95;100.00
16821;BME280;8527;49.740;6.604;2023-01-27T01:41:56;100197.66;;;0.95;100.00
16821;BME280;8527;49.740;6.604;2023-01-27T01:46:58;100198.50;;;0.96;100.00
16821;BME280;8527;49.740;6.604;2023-01-27T01:52:01;100194.69;;;1.02;100.00
16821;BME280;8527;49.740;6.604;2023-01-27T01:57:07;100194.31;;;0.93;100.00
16821;BME280;8527;49.740;6.604;2023-01-27T02:02:10;100191.69;;;0.93;100.00
16821;BME280;8527;49.740;6.604;2023-01-27T02:07:15;100196.84;;;0.95;100.00
16821;BME280;8527;49.740;6.604;2023-01-27T02:12:17;100187.84;;;0.99;100.00
16821;BME280;8527;49.740;6.604;2023-01-27T02:17:16;100183.38;;;1.01;100.00
16821;BME280;8527;49.740;6.604;2023-01-27T02:22:24;100187.75;;;1.01;100.00
16821;BME280;8527;49.740;6.604;2023-01-27T02:27:28;100188.41;;;1.04;100.00
16821;BME280;8527;49.740;6.604;2023-01-27T02:32:29;100185.91;;;1.03;100.00
16821;BME280;8527;49.740;6.604;2023-01-27T02:37:30;100186.72;;;1.03;100.00
16821;BME280;8527;49.740;6.604;2023-01-27T02:42:31;100177.13;;;1.04;100.00
16821;BME280;8527;49.740;6.604;2023-01-27T02:47:33;100186.44;;;1.08;100.00
16821;BME280;8527;49.740;6.604;2023-01-27T02:52:31;100187.66;;;1.02;100.00
16821;BME280;8527;49.740;6.604;2023-01-27T02:57:32;100181.50;;;1.03;100.00
16821;BME280;8527;49.740;6.604;2023-01-27T03:02:30;100177.00;;;1.05;100.00
16821;BME280;8527;49.740;6.604;2023-01-27T03:07:31;100178.41;;;1.11;100.00
16821;BME280;8527;49.740;6.604;2023-01-27T03:12:32;100184.97;;;1.04;100.00
16821;BME280;8527;49.740;6.604;2023-01-27T03:17:30;100183.16;;;1.04;100.00
16821;BME280;8527;49.740;6.604;2023-01-27T03:22:41;100190.06;;;1.05;100.00
16821;BME280;8527;49.740;6.604;2023-01-27T03:27:42;100190.06;;;1.05;100.00
16821;BME280;8527;49.740;6.604;2023-01-27T03:32:41;100186.25;;;1.11;100.00
16821;BME280;8527;49.740;6.604;2023-01-27T03:37:41;100182.88;;;1.09;100.00
16821;BME280;8527;49.740;6.604;2023-01-27T03:42:56;100190.66;;;1.10;100.00
16821;BME280;8527;49.740;6.604;2023-01-27T03:48:07;100187.19;;;1.10;100.00
16821;BME280;8527;49.740;6.604;2023-01-27T03:53:09;100181.88;;;1.11;100.00
16821;BME280;8527;49.740;6.604;2023-01-27T03:58:18;100182.88;;;1.09;100.00
16821;BME280;8527;49.740;6.604;2023-01-27T04:03:17;100185.91;;;1.03;100.00
16821;BME280;8527;49.740;6.604;2023-01-27T04:08:28;100186.34;;;1.09;100.00
16821;BME280;8527;49.740;6.604;2023-01-27T04:13:32;100192.69;;;1.05;100.00
16821;BME280;8527;49.740;6.604;2023-01-27T04:18:30;100181.41;;;1.05;100.00
16821;BME280;8527;49.740;6.604;2023-01-27T04:23:31;100191.56;;;1.09;100.00
16821;BME280;8527;49.740;6.604;2023-01-27T04:28:33;100186.25;;;1.11;100.00
16821;BME280;8527;49.740;6.604;2023-01-27T04:33:34;100187.47;;;1.05;100.00
16821;BME280;8527;49.740;6.604;2023-01-27T04:38:33;100190.81;;;1.07;100.00
16821;BME280;8527;49.740;6.604;2023-01-27T04:43:35;100190.81;;;1.07;100.00
16821;BME280;8527;49.740;6.604;2023-01-27T04:48:39;100186.88;;;1.15;100.00
16821;BME280;8527;49.740;6.604;2023-01-27T04:53:37;100188.75;;;1.12;100.00
16821;BME280;8527;49.740;6.604;2023-01-27T04:58:38;100197.75;;;1.08;100.00
16821;BME280;8527;49.740;6.604;2023-01-27T05:03:37;100197.34;;;1.15;100.00
16821;BME280;8527;49.740;6.604;2023-01-27T05:08:35;100195.94;;;1.09;100.00
16821;BME280;8527;49.740;6.604;2023-01-27T05:13:34;100207.13;;;1.11;100.00
16821;BME280;8527;49.740;6.604;2023-01-27T05:18:38;100215.63;;;1.15;100.00
16821;BME280;8527;49.740;6.604;2023-01-27T05:23:37;100212.09;;;1.16;100.00
16821;BME280;8527;49.740;6.604;2023-01-27T05:28:38;100218.06;;;1.18;100.00
16821;BME280;8527;49.740;6.604;2023-01-27T05:33:41;100216.28;;;1.18;100.00
16821;BME280;8527;49.740;6.604;2023-01-27T05:38:43;100227.47;;;1.20;100.00
16821;BME280;8527;49.740;6.604;2023-01-27T05:43:43;100225.16;;;1.16;100.00
16821;BME280;8527;49.740;6.604;2023-01-27T05:48:46;100221.81;;;1.14;100.00
16821;BME280;8527;49.740;6.604;2023-01-27T05:53:45;100236.00;;;1.09;100.00
16821;BME280;8527;49.740;6.604;2023-01-27T05:58:47;100236.53;;;1.15;100.00
16821;BME280;8527;49.740;6.604;2023-01-27T06:03:48;100240.63;;;1.19;100.00
16821;BME280;8527;49.740;6.604;2023-01-27T06:08:49;100238.66;;;1.22;100.00
16821;BME280;8527;49.740;6.604;2023-01-27T06:13:48;100245.78;;;1.20;100.00
16821;BME280;8527;49.740;6.604;2023-01-27T06:18:54;100252.47;;;1.24;100.00
16821;BME280;8527;49.740;6.604;2023-01-27T06:24:04;100256.59;;;1.29;100.00
16821;BME280;8527;49.740;6.604;2023-01-27T06:29:02;100264.25;;;1.32;100.00
16821;BME280;8527;49.740;6.604;2023-01-27T06:34:03;100263.09;;;1.36;100.00
16821;BME280;8527;49.740;6.604;2023-01-27T06:39:02;100271.06;;;1.34;100.00
16821;BME280;8527;49.740;6.604;2023-01-27T06:44:01;100272.75;;;1.35;100.00
16821;BME280;8527;49.740;6.604;2023-01-27T06:49:00;100273.66;;;1.34;100.00
16821;BME280;8527;49.740;6.604;2023-01-27T06:54:01;100277.75;;;1.38;100.00
16821;BME280;8527;49.740;6.604;2023-01-27T06:58:59;100279.34;;;1.41;100.00
16821;BME280;8527;49.740;6.604;2023-01-27T07:04:03;100271.41;;;1.43;100.00
16821;BME280;8527;49.740;6.604;2023-01-27T07:09:07;100273.06;;;1.44;100.00
16821;BME280;8527;49.740;6.604;2023-01-27T07:14:05;100284.38;;;1.44;100.00
16821;BME280;8527;49.740;6.604;2023-01-27T07:19:06;100287.81;;;1.45;100.00
16821;BME280;8527;49.740;6.604;2023-01-27T07:24:07;100288.69;;;1.45;100.00
16821;BME280;8527;49.740;6.604;2023-01-27T07:29:09;100288.59;;;1.47;100.00
16821;BME280;8527;49.740;6.604;2023-01-27T07:34:07;100290.06;;;1.51;100.00
16821;BME280;8527;49.740;6.604;2023-01-27T07:39:08;100287.25;;;1.54;100.00
16821;BME280;8527;49.740;6.604;2023-01-27T07:44:07;100297.44;;;1.59;100.00
16821;BME280;8527;49.740;6.604;2023-01-27T07:49:08;100304.63;;;1.55;100.00
16821;BME280;8527;49.740;6.604;2023-01-27T07:54:10;100310.31;;;1.62;100.00
16821;BME280;8527;49.740;6.604;2023-01-27T07:59:09;100312.91;;;1.62;100.00
16821;BME280;8527;49.740;6.604;2023-01-27T08:04:11;100322.28;;;1.66;100.00
16821;BME280;8527;49.740;6.604;2023-01-27T08:09:12;100337.56;;;1.72;100.00
16821;BME280;8527;49.740;6.604;2023-01-27T08:14:10;100326.81;;;1.77;100.00
16821;BME280;8527;49.740;6.604;2023-01-27T08:19:08;100333.91;;;1.75;100.00
16821;BME280;8527;49.740;6.604;2023-01-27T08:24:12;100335.97;;;1.84;100.00
16821;BME280;8527;49.740;6.604;2023-01-27T08:29:13;100340.72;;;1.92;100.00
16821;BME280;8527;49.740;6.604;2023-01-27T08:34:14;100341.31;;;1.95;100.00
16821;BME280;8527;49.740;6.604;2023-01-27T08:39:15;100337.31;;;2.04;100.00
16821;BME280;8527;49.740;6.604;2023-01-27T08:44:14;100350.91;;;2.09;100.00
16821;BME280;8527;49.740;6.604;2023-01-27T08:49:12;100341.59;;;2.05;100.00
16821;BME280;8527;49.740;6.604;2023-01-27T08:54:10;100350.63;;;2.14;100.00
16821;BME280;8527;49.740;6.604;2023-01-27T08:59:11;100365.31;;;2.17;100.00
16821;BME280;8527;49.740;6.604;2023-01-27T09:04:10;100356.09;;;2.24;100.00
16821;BME280;8527;49.740;6.604;2023-01-27T09:09:08;100356.03;;;2.38;100.00
16821;BME280;8527;49.740;6.604;2023-01-27T09:14:07;100366.13;;;2.45;100.00
16821;BME280;8527;49.740;6.604;2023-01-27T09:19:08;100365.69;;;2.38;100.00
16821;BME280;8527;49.740;6.604;2023-01-27T09:24:09;100377.56;;;2.57;100.00
16821;BME280;8527;49.740;6.604;2023-01-27T09:29:08;100377.84;;;2.52;100.00
16821;BME280;8527;49.740;6.604;2023-01-27T09:34:09;100375.19;;;2.66;100.00
16821;BME280;8527;49.740;6.604;2023-01-27T09:39:15;100389.41;;;2.62;100.00
16821;BME280;8527;49.740;6.604;2023-01-27T09:44:29;100383.22;;;2.63;100.00
16821;BME280;8527;49.740;6.604;2023-01-27T09:49:44;100390.41;;;2.74;100.00
16821;BME280;8527;49.740;6.604;2023-01-27T09:54:56;100390.91;;;2.66;100.00
16821;BME280;8527;49.740;6.604;2023-01-27T10:00:09;100399.19;;;2.73;100.00
16821;BME280;8527;49.740;6.604;2023-01-27T10:05:29;100394.56;;;2.64;100.00
16821;BME280;8527;49.740;6.604;2023-01-27T10:10:47;100388.38;;;2.78;100.00
16821;BME280;8527;49.740;6.604;2023-01-27T10:15:57;100396.06;;;2.81;100.00
16821;BME280;8527;49.740;6.604;2023-01-27T10:21:05;100397.47;;;3.13;100.00
16821;BME280;8527;49.740;6.604;2023-01-27T10:26:16;100398.00;;;3.31;100.00
16821;BME280;8527;49.740;6.604;2023-01-27T10:31:22;100395.97;;;3.34;100.00
16821;BME280;8527;49.740;6.604;2023-01-27T10:36:29;100397.28;;;3.29;100.00
16821;BME280;8527;49.740;6.604;2023-01-27T10:41:35;100399.22;;;3.38;100.00
16821;BME280;8527;49.740;6.604;2023-01-27T10:46:50;100399.78;;;3.30;100.00
16821;BME280;8527;49.740;6.604;2023-01-27T10:51:58;100404.16;;;3.17;100.00
16821;BME280;8527;49.740;6.604;2023-01-27T10:57:01;100394.19;;;3.22;100.00
16821;BME280;8527;49.740;6.604;2023-01-27T11:02:13;100402.50;;;3.29;100.00
16821;BME280;8527;49.740;6.604;2023-01-27T11:07:21;100401.97;;;3.36;100.00
16821;BME280;8527;49.740;6.604;2023-01-27T11:12:27;100405.44;;;3.24;100.00
16821;BME280;8527;49.740;6.604;2023-01-27T11:17:30;100406.25;;;3.50;100.00
16821;BME280;8527;49.740;6.604;2023-01-27T11:22:43;100405.84;;;3.57;100.00
16821;BME280;8527;49.740;6.604;2023-01-27T11:28:03;100398.28;;;3.52;100.00
16821;BME280;8527;49.740;6.604;2023-01-27T11:33:10;100406.16;;;3.52;98.87
16821;BME280;8527;49.740;6.604;2023-01-27T11:38:17;100392.00;;;3.55;98.42
16821;BME280;8527;49.740;6.604;2023-01-27T11:43:25;100390.38;;;3.65;97.35
16821;BME280;8527;49.740;6.604;2023-01-27T11:48:35;100383.69;;;3.61;97.35
16821;BME280;8527;49.740;6.604;2023-01-27T11:53:42;100381.97;;;3.86;98.20
16821;BME280;8527;49.740;6.604;2023-01-27T11:58:46;100376.94;;;3.83;97.69
16821;BME280;8527;49.740;6.604;2023-01-27T12:03:51;100369.78;;;3.85;97.24
16821;BME280;8527;49.740;6.604;2023-01-27T12:08:57;100365.03;;;3.90;97.19
16821;BME280;8527;49.740;6.604;2023-01-27T12:13:57;100366.22;;;3.86;96.53
16821;BME280;8527;49.740;6.604;2023-01-27T12:19:00;100371.22;;;3.89;96.80
16821;BME280;8527;49.740;6.604;2023-01-27T12:24:05;100384.09;;;3.80;96.55
16821;BME280;8527;49.740;6.604;2023-01-27T12:29:17;100347.75;;;3.87;96.30
16821;BME280;8527;49.740;6.604;2023-01-27T12:34:30;100352.16;;;4.35;96.11
16821;BME280;8527;49.740;6.604;2023-01-27T12:39:41;100351.03;;;4.02;95.08
16821;BME280;8527;49.740;6.604;2023-01-27T12:44:44;100332.78;;;4.01;95.26
16821;BME280;8527;49.740;6.604;2023-01-27T12:49:43;100325.69;;;4.14;95.47
16821;BME280;8527;49.740;6.604;2023-01-27T12:54:45;100328.06;;;4.17;95.78
16821;BME280;8527;49.740;6.604;2023-01-27T12:59:48;100328.13;;;4.29;95.47
16821;BME280;8527;49.740;6.604;2023-01-27T13:04:51;100324.81;;;4.14;95.22
16821;BME280;8527;49.740;6.604;2023-01-27T13:09:57;100338.03;;;4.01;95.59
16821;BME280;8527;49.740;6.604;2023-01-27T13:15:05;100325.88;;;3.87;97.41
16821;BME280;8527;49.740;6.604;2023-01-27T13:20:15;100333.03;;;4.09;97.82
16821;BME280;8527;49.740;6.604;2023-01-27T13:25:21;100324.41;;;4.20;98.21
16821;BME280;8527;49.740;6.604;2023-01-27T13:30:26;100317.28;;;4.09;98.72
16821;BME280;8527;49.740;6.604;2023-01-27T13:35:31;100320.59;;;4.24;98.31
16821;BME280;8527;49.740;6.604;2023-01-27T13:40:36;100329.53;;;3.97;99.14
16821;BME280;8527;49.740;6.604;2023-01-27T13:45:38;100330.59;;;3.94;98.14
16821;BME280;8527;49.740;6.604;2023-01-27T13:50:40;100335.50;;;3.99;97.92
16821;BME280;8527;49.740;6.604;2023-01-27T13:56:04;100342.91;;;3.81;96.69
16821;BME280;8527;49.740;6.604;2023-01-27T14:01:16;100355.00;;;3.84;96.39
16821;BME280;8527;49.740;6.604;2023-01-27T14:06:28;100352.91;;;3.76;95.16
16821;BME280;8527;49.740;6.604;2023-01-27T14:11:41;100362.78;;;3.72;95.56
16821;BME280;8527;49.740;6.604;2023-01-27T14:16:55;100353.47;;;3.68;94.08
16821;BME280;8527;49.740;6.604;2023-01-27T14:21:58;100372.66;;;3.69;94.16
16821;BME280;8527;49.740;6.604;2023-01-27T14:27:09;100374.03;;;3.61;94.59
16821;BME280;8527;49.740;6.604;2023-01-27T14:32:17;100376.13;;;3.69;92.89
16821;BME280;8527;49.740;6.604;2023-01-27T14:37:25;100390.38;;;3.65;89.33
16821;BME280;8527;49.740;6.604;2023-01-27T14:42:37;100373.28;;;3.59;88.78
16821;BME280;8527;49.740;6.604;2023-01-27T14:47:44;100386.09;;;3.64;90.10
16821;BME280;8527;49.740;6.604;2023-01-27T14:52:47;100386.84;;;3.53;90.56
16821;BME280;8527;49.740;6.604;2023-01-27T14:57:59;100398.16;;;3.54;91.28
16821;BME280;8527;49.740;6.604;2023-01-27T15:03:25;100404.47;;;3.38;92.09
16821;BME280;8527;49.740;6.604;2023-01-27T15:08:33;100404.38;;;3.40;92.88
16821;BME280;8527;49.740;6.604;2023-01-27T15:13:51;100414.75;;;3.41;93.48
16821;BME280;8527;49.740;6.604;2023-01-27T15:24:29;100426.00;;;3.43;95.18
16821;BME280;8527;49.740;6.604;2023-01-27T15:29:37;100427.03;;;3.28;95.45
16821;BME280;8527;49.740;6.604;2023-01-27T15:34:35;100434.16;;;3.26;97.24
16821;BME280;8527;49.740;6.604;2023-01-27T15:39:51;100433.63;;;3.07;98.84
16821;BME280;8527;49.740;6.604;2023-01-27T15:45:00;100444.31;;;2.91;99.96
16821;BME280;8527;49.740;6.604;2023-01-27T15:50:07;100453.00;;;2.92;100.00
16821;BME280;8527;49.740;6.604;2023-01-27T15:55:23;100462.97;;;3.00;100.00
16821;BME280;8527;49.740;6.604;2023-01-27T16:00:28;100452.25;;;2.90;100.00
16821;BME280;8527;49.740;6.604;2023-01-27T16:05:29;100463.56;;;2.90;100.00
16821;BME280;8527;49.740;6.604;2023-01-27T16:10:36;100471.50;;;2.76;100.00
16821;BME280;8527;49.740;6.604;2023-01-27T16:15:37;100479.06;;;2.80;100.00
16821;BME280;8527;49.740;6.604;2023-01-27T16:20:43;100482.84;;;2.76;100.00
16821;BME280;8527;49.740;6.604;2023-01-27T16:25:58;100485.34;;;2.78;100.00
16821;BME280;8527;49.740;6.604;2023-01-27T16:31:12;100489.66;;;2.79;100.00
16821;BME280;8527;49.740;6.604;2023-01-27T16:36:19;100484.22;;;2.82;100.00
16821;BME280;8527;49.740;6.604;2023-01-27T16:41:20;100493.97;;;2.80;100.00
16821;BME280;8527;49.740;6.604;2023-01-27T16:46:34;100501.81;;;2.80;100.00
16821;BME280;8527;49.740;6.604;2023-01-27T16:51:33;100500.66;;;2.84;100.00
16821;BME280;8527;49.740;6.604;2023-01-27T16:56:36;100510.13;;;2.87;100.00
16821;BME280;8527;49.740;6.604;2023-01-27T17:01:41;100503.69;;;2.78;100.00
16821;BME280;8527;49.740;6.604;2023-01-27T17:06:41;100513.97;;;2.81;100.00
16821;BME280;8527;49.740;6.604;2023-01-27T17:11:40;100512.91;;;2.84;100.00
16821;BME280;8527;49.740;6.604;2023-01-27T17:16:43;100517.34;;;2.83;100.00
16821;BME280;8527;49.740;6.604;2023-01-27T17:21:45;100525.00;;;2.86;100.00
16821;BME280;8527;49.740;6.604;2023-01-27T17:26:48;100525.13;;;2.85;100.00
16821;BME280;8527;49.740;6.604;2023-01-27T17:31:52;100526.38;;;2.92;100.00
16821;BME280;8527;49.740;6.604;2023-01-27T17:37:07;100536.22;;;2.88;100.00
16821;BME280;8527;49.740;6.604;2023-01-27T17:42:12;100541.38;;;2.90;100.00
16821;BME280;8527;49.740;6.604;2023-01-27T17:47:16;100541.16;;;2.93;100.00
16821;BME280;8527;49.740;6.604;2023-01-27T17:52:18;100545.66;;;2.91;100.00
16821;BME280;8527;49.740;6.604;2023-01-27T17:57:24;100550.06;;;2.90;100.00
16821;BME280;8527;49.740;6.604;2023-01-27T18:02:31;100549.59;;;2.98;100.00
16821;BME280;8527;49.740;6.604;2023-01-27T18:07:32;100564.38;;;2.99;100.00
16821;BME280;8527;49.740;6.604;2023-01-27T18:12:33;100570.16;;;3.04;100.00
16821;BME280;8527;49.740;6.604;2023-01-27T18:17:35;100570.19;;;2.90;100.00
16821;BME280;8527;49.740;6.604;2023-01-27T18:22:33;100582.59;;;3.01;100.00
16821;BME280;8527;49.740;6.604;2023-01-27T18:27:34;100568.03;;;2.97;100.00
16821;BME280;8527;49.740;6.604;2023-01-27T18:32:39;100573.47;;;2.93;100.00
16821;BME280;8527;49.740;6.604;2023-01-27T18:37:49;100582.28;;;2.92;100.00
16821;BME280;8527;49.740;6.604;2023-01-27T18:42:50;100582.81;;;2.98;100.00
16821;BME280;8527;49.740;6.604;2023-01-27T18:47:52;100578.22;;;3.01;100.00
16821;BME280;8527;49.740;6.604;2023-01-27T18:52:51;100580.91;;;3.00;100.00
16821;BME280;8527;49.740;6.604;2023-01-27T18:57:53;100585.63;;;2.94;100.00
16821;BME280;8527;49.740;6.604;2023-01-27T19:02:57;100581.28;;;3.08;100.00
16821;BME280;8527;49.740;6.604;2023-01-27T19:07:56;100579.03;;;3.02;100.00
16821;BME280;8527;49.740;6.604;2023-01-27T19:12:59;100587.09;;;2.99;100.00
16821;BME280;8527;49.740;6.604;2023-01-27T19:18:05;100585.06;;;3.04;100.00
16821;BME280;8527;49.740;6.604;2023-01-27T19:23:09;100586.28;;;2.98;100.00
16821;BME280;8527;49.740;6.604;2023-01-27T19:28:15;100584.94;;;3.05;100.00
16821;BME280;8527;49.740;6.604;2023-01-27T19:33:21;100592.59;;;3.08;100.00
16821;BME280;8527;49.740;6.604;2023-01-27T19:38:21;100581.28;;;3.08;100.00
16821;BME280;8527;49.740;6.604;2023-01-27T19:43:20;100595.97;;;3.11;100.00
16821;BME280;8527;49.740;6.604;2023-01-27T19:48:22;100592.78;;;3.05;100.00
16821;BME280;8527;49.740;6.604;2023-01-27T19:53:21;100598.78;;;3.07;100.00
16821;BME280;8527;49.740;6.604;2023-01-27T19:58:21;100613.03;;;3.03;100.00
16821;BME280;8527;49.740;6.604;2023-01-27T20:03:23;100612.63;;;3.09;100.00
16821;BME280;8527;49.740;6.604;2023-01-27T20:08:21;100622.66;;;3.03;100.00
16821;BME280;8527;49.740;6.604;2023-01-27T20:13:20;100614.50;;;3.07;100.00
16821;BME280;8527;49.740;6.604;2023-01-27T20:18:18;100620.88;;;3.03;100.00
16821;BME280;8527;49.740;6.604;2023-01-27T20:23:23;100620.69;;;3.06;100.00
16821;BME280;8527;49.740;6.604;2023-01-27T20:28:21;100619.44;;;3.12;100.00
16821;BME280;8527;49.740;6.604;2023-01-27T20:33:22;100613.47;;;3.10;100.00
16821;BME280;8527;49.740;6.604;2023-01-27T20:38:23;100618.72;;;3.10;100.00
16821;BME280;8527;49.740;6.604;2023-01-27T20:43:21;100625.00;;;3.07;100.00
16821;BME280;8527;49.740;6.604;2023-01-27T20:48:20;100618.81;;;3.08;100.00
16821;BME280;8527;49.740;6.604;2023-01-27T20:53:18;100622.38;;;3.07;100.00
16821;BME280;8527;49.740;6.604;2023-01-27T20:58:19;100626.66;;;3.08;100.00
16821;BME280;8527;49.740;6.604;2023-01-27T21:03:21;100634.94;;;3.02;100.00
16821;BME280;8527;49.740;6.604;2023-01-27T21:08:20;100640.72;;;3.07;100.00
16821;BME280;8527;49.740;6.604;2023-01-27T21:13:23;100634.66;;;3.07;100.00
16821;BME280;8527;49.740;6.604;2023-01-27T21:18:22;100636.22;;;3.09;100.00
16821;BME280;8527;49.740;6.604;2023-01-27T21:23:21;100631.28;;;2.90;100.00
16821;BME280;8527;49.740;6.604;2023-01-27T21:28:32;100642.06;;;3.00;100.00
16821;BME280;8527;49.740;6.604;2023-01-27T21:33:33;100635.91;;;2.87;100.00
16821;BME280;8527;49.740;6.604;2023-01-27T21:38:32;100629.53;;;2.91;100.00
16821;BME280;8527;49.740;6.604;2023-01-27T21:43:34;100639.94;;;2.92;100.00
16821;BME280;8527;49.740;6.604;2023-01-27T21:48:48;100635.44;;;2.94;100.00
16821;BME280;8527;49.740;6.604;2023-01-27T21:53:47;100634.13;;;2.87;100.00
16821;BME280;8527;49.740;6.604;2023-01-27T21:58:49;100633.38;;;2.85;100.00
16821;BME280;8527;49.740;6.604;2023-01-27T22:03:47;100630.22;;;2.80;100.00
16821;BME280;8527;49.740;6.604;2023-01-27T22:08:48;100635.47;;;2.80;100.00
16821;BME280;8527;49.740;6.604;2023-01-27T22:13:50;100633.88;;;2.77;100.00
16821;BME280;8527;49.740;6.604;2023-01-27T22:18:53;100632.19;;;2.76;100.00
16821;BME280;8527;49.740;6.604;2023-01-27T22:23:51;100634.53;;;2.81;100.00
16821;BME280;8527;49.740;6.604;2023-01-27T22:28:52;100633.38;;;2.85;100.00
16821;BME280;8527;49.740;6.604;2023-01-27T22:33:54;100630.31;;;2.78;100.00
16821;BME280;8527;49.740;6.604;2023-01-27T22:38:53;100630.22;;;2.80;100.00
16821;BME280;8527;49.740;6.604;2023-01-27T22:43:54;100625.59;;;2.84;100.00
16821;BME280;8527;49.740;6.604;2023-01-27T22:48:54;100623.91;;;2.83;100.00
16821;BME280;8527;49.740;6.604;2023-01-27T22:53:55;100616.06;;;2.83;100.00
16821;BME280;8527;49.740;6.604;2023-01-27T22:58:59;100621.78;;;2.75;100.00
16821;BME280;8527;49.740;6.604;2023-01-27T23:04:00;100619.44;;;2.70;100.00
16821;BME280;8527;49.740;6.604;2023-01-27T23:08:58;100625.47;;;2.72;100.00
16821;BME280;8527;49.740;6.604;2023-01-27T23:13:59;100622.84;;;2.72;100.00
16821;BME280;8527;49.740;6.604;2023-01-27T23:19:01;100626.38;;;2.71;100.00
16821;BME280;8527;49.740;6.604;2023-01-27T23:24:00;100638.66;;;2.71;100.00
16821;BME280;8527;49.740;6.604;2023-01-27T23:29:00;100631.31;;;2.76;100.00
16821;BME280;8527;49.740;6.604;2023-01-27T23:34:02;100632.25;;;2.75;100.00
16821;BME280;8527;49.740;6.604;2023-01-27T23:39:01;100638.44;;;2.74;100.00
16821;BME280;8527;49.740;6.604;2023-01-27T23:44:02;100640.31;;;2.72;100.00
16821;BME280;8527;49.740;6.604;2023-01-27T23:49:00;100641.63;;;2.79;100.00
16821;BME280;8527;49.740;6.604;2023-01-27T23:53:59;100638.91;;;2.80;100.00
16821;BME280;8527;49.740;6.604;2023-01-27T23:58:57;100639.03;;;2.79;100.00
